Time;durP1;ratioP1;P1;durP2;ratioP2;P2;SDS_P1;SDS_P2;PMS_P1;PMS_P2;Temp;Humidity;BMP_temperature;BMP_pressure;BME280_temperature;BME280_humidity;BME280_pressure;Samples;Min_cycle;Max_cycle;Signal;HPM_P1;HPM_P2
2022/07/19 00:00:55;;;;;;;8.97;8.03;;;19.60;1.00;;;;;;6284567;28;20326;-52
2022/07/19 00:03:58;;;;;;;8.83;8.13;;;19.50;1.00;;;;;;6287523;28;20233;-52
2022/07/19 00:07:01;;;;;;;8.93;8.23;;;19.50;1.00;;;;;;6281729;28;20471;-52
2022/07/19 00:10:09;;;;;;;8.50;7.70;;;19.50;1.00;;;;;;6273308;28;20655;-52
2022/07/19 00:13:12;;;;;;;9.03;8.30;;;19.40;1.00;;;;;;6275405;28;20608;-52
2022/07/19 00:16:15;;;;;;;8.07;7.47;;;19.40;1.00;;;;;;6267280;28;20240;-52
2022/07/19 00:19:19;;;;;;;8.50;7.80;;;19.40;1.00;;;;;;6272934;28;20264;-52
2022/07/19 00:22:22;;;;;;;9.23;8.43;;;19.30;1.00;;;;;;6281488;28;20245;-52
2022/07/19 00:25:26;;;;;;;8.30;7.67;;;19.30;1.00;;;;;;6264025;28;20265;-52
2022/07/19 00:28:29;;;;;;;9.17;8.27;;;19.30;1.00;;;;;;6257173;28;20243;-52
2022/07/19 00:31:32;;;;;;;8.40;7.80;;;19.30;1.00;;;;;;6258045;28;20506;-51
2022/07/19 00:34:35;;;;;;;7.80;7.20;;;19.20;1.00;;;;;;6288424;28;20232;-53
2022/07/19 00:37:38;;;;;;;8.10;7.50;;;19.20;1.00;;;;;;6291925;28;20686;-52
2022/07/19 00:40:50;;;;;;;8.90;8.00;;;19.20;1.00;;;;;;6277510;28;20385;-52
2022/07/19 00:43:54;;;;;;;7.27;6.70;;;19.10;1.00;;;;;;6283441;28;20233;-52
2022/07/19 00:46:58;;;;;;;8.97;8.27;;;19.10;1.00;;;;;;6279315;28;20244;-52
2022/07/19 00:50:00;;;;;;;9.20;7.77;;;19.10;1.00;;;;;;6260625;28;20248;-53
2022/07/19 00:53:05;;;;;;;7.33;6.83;;;19.00;1.00;;;;;;6259314;28;20506;-53
2022/07/19 00:56:12;;;;;;;6.53;6.13;;;19.00;1.00;;;;;;6262510;28;20695;-53
2022/07/19 00:59:16;;;;;;;7.90;7.20;;;19.00;1.00;;;;;;6269940;28;20241;-54
2022/07/19 01:02:19;;;;;;;7.77;7.07;;;19.00;1.00;;;;;;6286388;28;20465;-52
2022/07/19 01:05:22;;;;;;;7.30;6.80;;;19.00;1.00;;;;;;6290530;28;21649;-53
2022/07/19 01:08:25;;;;;;;7.00;6.47;;;18.90;1.00;;;;;;6275562;28;20279;-53
2022/07/19 01:11:30;;;;;;;7.20;6.80;;;18.90;1.00;;;;;;6269581;28;20307;-52
2022/07/19 01:14:35;;;;;;;7.50;6.90;;;18.90;1.00;;;;;;6262845;28;20238;-53
2022/07/19 01:17:38;;;;;;;7.33;6.73;;;18.90;1.00;;;;;;6261334;28;20246;-52
2022/07/19 01:20:41;;;;;;;7.17;6.67;;;18.90;1.00;;;;;;6260700;28;20255;-52
2022/07/19 01:23:45;;;;;;;8.77;7.87;;;18.80;1.00;;;;;;6258678;28;20333;-52
2022/07/19 01:26:48;;;;;;;7.13;6.63;;;18.80;1.00;;;;;;6260975;28;20376;-51
2022/07/19 01:29:51;;;;;;;7.90;7.30;;;18.70;1.00;;;;;;6261591;28;20321;-51
2022/07/19 01:32:54;;;;;;;7.70;7.00;;;18.70;1.00;;;;;;6272726;28;20266;-53
2022/07/19 01:35:57;;;;;;;6.80;6.40;;;18.60;1.00;;;;;;6283257;28;20454;-53
2022/07/19 01:39:02;;;;;;;6.97;6.47;;;18.60;1.00;;;;;;6281210;28;20261;-51
2022/07/19 01:42:05;;;;;;;8.50;7.70;;;18.60;1.00;;;;;;6285492;28;20711;-52
2022/07/19 01:45:10;;;;;;;8.20;7.60;;;18.60;1.00;;;;;;6266015;28;20233;-51
2022/07/19 01:48:13;;;;;;;7.60;7.10;;;18.50;1.00;;;;;;6260232;28;20317;-52
2022/07/19 01:51:15;;;;;;;7.10;6.50;;;18.50;1.00;;;;;;6261136;28;20229;-52
2022/07/19 01:54:20;;;;;;;7.13;6.73;;;18.50;1.00;;;;;;6258490;28;20748;-53
2022/07/19 01:57:23;;;;;;;7.23;6.77;;;18.50;1.00;;;;;;6260541;28;20234;-53
2022/07/19 02:00:26;;;;;;;7.47;6.90;;;18.50;1.00;;;;;;6260243;28;20303;-53
2022/07/19 02:03:29;;;;;;;6.90;6.50;;;18.40;1.00;;;;;;6280085;28;20293;-52
2022/07/19 02:06:31;;;;;;;7.33;6.70;;;18.40;1.00;;;;;;6304253;28;20362;-54
2022/07/19 02:09:36;;;;;;;7.27;6.77;;;18.30;1.00;;;;;;6264553;28;20241;-52
2022/07/19 02:12:39;;;;;;;7.30;6.77;;;18.30;1.00;;;;;;6261530;28;20315;-53
2022/07/19 02:15:42;;;;;;;6.90;6.30;;;18.30;1.00;;;;;;6272393;28;20316;-52
2022/07/19 02:18:45;;;;;;;6.83;6.43;;;18.30;1.00;;;;;;6269496;28;20361;-52
2022/07/19 02:21:48;;;;;;;7.27;6.87;;;18.30;1.00;;;;;;6259461;28;20248;-58
2022/07/19 02:24:52;;;;;;;6.70;6.30;;;18.20;1.00;;;;;;6257652;28;20946;-53
2022/07/19 02:28:00;;;;;;;7.47;6.97;;;18.20;1.00;;;;;;6281329;28;20233;-52
2022/07/19 02:31:02;;;;;;;7.33;6.93;;;18.20;1.00;;;;;;6253882;28;20313;-50
2022/07/19 02:34:05;;;;;;;7.17;6.63;;;18.20;1.00;;;;;;6283547;28;20777;-52
2022/07/19 02:37:08;;;;;;;7.77;7.17;;;18.20;1.00;;;;;;6296768;28;20716;-52
2022/07/19 02:40:13;;;;;;;7.43;6.83;;;18.10;1.00;;;;;;6274446;28;20807;-51
2022/07/19 02:43:15;;;;;;;7.00;6.50;;;18.10;1.00;;;;;;6284595;28;20791;-53
2022/07/19 02:46:18;;;;;;;7.87;7.27;;;18.10;1.00;;;;;;6284262;28;20245;-52
2022/07/19 02:49:22;;;;;;;7.07;6.60;;;18.10;1.00;;;;;;6254787;28;20412;-52
2022/07/19 02:52:31;;;;;;;7.37;6.67;;;18.10;1.00;;;;;;6264636;28;20233;-51
2022/07/19 02:55:36;;;;;;;7.33;6.73;;;18.10;1.00;;;;;;6283528;28;20734;-51
2022/07/19 02:58:39;;;;;;;7.03;6.43;;;18.00;1.00;;;;;;6282921;28;20332;-52
2022/07/19 03:01:42;;;;;;;7.53;6.83;;;18.00;1.00;;;;;;6278683;28;20392;-52
2022/07/19 03:04:45;;;;;;;7.00;6.50;;;18.00;1.00;;;;;;6283122;28;20233;-53
2022/07/19 03:07:48;;;;;;;6.60;6.20;;;17.90;1.00;;;;;;6285302;28;20368;-53
2022/07/19 03:10:52;;;;;;;6.97;6.47;;;17.90;1.00;;;;;;6272864;28;20368;-52
2022/07/19 03:13:57;;;;;;;6.37;5.97;;;17.90;1.00;;;;;;6260036;28;20713;-52
2022/07/19 03:17:00;;;;;;;6.33;5.90;;;17.90;1.00;;;;;;6258406;28;20718;-53
2022/07/19 03:20:03;;;;;;;6.40;6.00;;;17.90;1.00;;;;;;6258454;28;20396;-52
2022/07/19 03:23:06;;;;;;;6.90;6.40;;;17.90;1.00;;;;;;6256015;28;20321;-51
2022/07/19 03:26:11;;;;;;;6.77;6.33;;;17.90;1.00;;;;;;6259711;28;20317;-54
2022/07/19 03:29:14;;;;;;;7.03;6.53;;;17.90;1.00;;;;;;6258322;28;20510;-50
2022/07/19 03:32:17;;;;;;;6.57;6.17;;;17.90;1.00;;;;;;6253390;28;20344;-52
2022/07/19 03:35:20;;;;;;;6.30;5.80;;;17.90;1.00;;;;;;6278559;28;20229;-53
2022/07/19 03:38:23;;;;;;;6.27;5.97;;;17.90;1.00;;;;;;6256834;28;20741;-53
2022/07/19 03:41:27;;;;;;;6.30;5.90;;;17.90;1.00;;;;;;6276948;28;20327;-52
2022/07/19 03:44:30;;;;;;;6.53;6.13;;;17.90;1.00;;;;;;6285118;28;20241;-52
2022/07/19 03:47:33;;;;;;;6.90;6.40;;;17.90;1.00;;;;;;6281804;28;20314;-52
2022/07/19 03:50:36;;;;;;;7.70;7.00;;;17.90;1.00;;;;;;6272167;28;20225;-53
2022/07/19 03:53:39;;;;;;;6.87;6.27;;;17.90;1.00;;;;;;6275519;28;20735;-52
2022/07/19 03:56:43;;;;;;;6.77;6.37;;;17.90;1.00;;;;;;6271374;28;20241;-52
2022/07/19 03:59:46;;;;;;;6.17;5.77;;;18.00;1.00;;;;;;6287437;28;20233;-54
2022/07/19 04:02:50;;;;;;;7.07;6.57;;;18.00;1.00;;;;;;6286631;28;20374;-53
2022/07/19 04:05:54;;;;;;;7.07;6.47;;;18.00;1.00;;;;;;6286479;28;20738;-52
2022/07/19 04:08:58;;;;;;;7.67;7.07;;;18.10;1.00;;;;;;6274894;28;20333;-53
2022/07/19 04:12:02;;;;;;;7.20;6.60;;;18.10;1.00;;;;;;6280859;28;20317;-52
2022/07/19 04:15:06;;;;;;;7.47;6.87;;;18.10;1.00;;;;;;6281410;28;20279;-53
2022/07/19 04:18:09;;;;;;;7.00;6.50;;;18.20;1.00;;;;;;6287605;28;20338;-52
2022/07/19 04:21:12;;;;;;;7.60;7.00;;;18.20;1.00;;;;;;6280726;28;20247;-57
2022/07/19 04:24:15;;;;;;;7.57;7.03;;;18.30;1.00;;;;;;6283056;28;20656;-53
2022/07/19 04:27:19;;;;;;;6.17;5.77;;;18.30;1.00;;;;;;6281985;28;20323;-53
2022/07/19 04:30:22;;;;;;;7.77;7.17;;;18.40;1.00;;;;;;6289054;28;20284;-53
2022/07/19 04:33:25;;;;;;;7.00;6.60;;;18.40;1.00;;;;;;6282377;28;20802;-52
2022/07/19 04:36:28;;;;;;;7.40;6.80;;;18.50;1.00;;;;;;6286334;28;20851;-52
2022/07/19 04:39:31;;;;;;;7.37;6.73;;;18.50;1.00;;;;;;6276032;28;20865;-50
2022/07/19 04:42:35;;;;;;;6.60;6.00;;;18.50;1.00;;;;;;6290387;28;20229;-51
2022/07/19 04:45:39;;;;;;;6.10;5.70;;;18.60;1.00;;;;;;6285178;28;20367;-52
2022/07/19 04:48:42;;;;;;;6.10;5.70;;;18.60;1.00;;;;;;6283615;28;20265;-53
2022/07/19 04:51:48;;;;;;;5.83;5.53;;;18.70;1.00;;;;;;6283029;28;20274;-53
2022/07/19 04:54:54;;;;;;;6.33;5.93;;;18.80;1.00;;;;;;6278227;28;20647;-54
2022/07/19 04:57:58;;;;;;;6.33;5.90;;;18.90;1.00;;;;;;6288297;28;20257;-53
2022/07/19 05:01:01;;;;;;;6.57;6.17;;;19.00;1.00;;;;;;6277861;28;20237;-53
2022/07/19 05:04:04;;;;;;;7.37;6.77;;;19.10;1.00;;;;;;6288724;28;20331;-53
2022/07/19 05:07:07;;;;;;;7.43;6.77;;;19.30;1.00;;;;;;6277708;28;20706;-52
2022/07/19 05:10:11;;;;;;;8.63;6.97;;;19.60;1.00;;;;;;6277385;28;20679;-52
2022/07/19 05:13:15;;;;;;;11.30;7.47;;;19.80;1.00;;;;;;6292126;28;22195;-53
2022/07/19 05:16:18;;;;;;;7.80;7.10;;;20.10;1.00;;;;;;6282778;28;20237;-54
2022/07/19 05:19:21;;;;;;;8.30;7.50;;;20.40;1.00;;;;;;6283621;28;20623;-52
2022/07/19 05:22:25;;;;;;;9.80;7.60;;;20.70;1.00;;;;;;6285180;28;20237;-54
2022/07/19 05:25:28;;;;;;;6.70;6.13;;;21.00;1.00;;;;;;6280324;28;20338;-52
2022/07/19 05:28:32;;;;;;;8.30;5.83;;;21.30;1.00;;;;;;6280613;28;20710;-53
2022/07/19 05:31:38;;;;;;;5.60;5.20;;;21.60;1.00;;;;;;6259450;28;20226;-52
2022/07/19 05:34:42;;;;;;;8.90;5.67;;;21.90;1.00;;;;;;6275612;28;20252;-53
2022/07/19 05:37:45;;;;;;;6.70;5.17;;;22.20;1.00;;;;;;6282691;28;20240;-53
2022/07/19 05:40:48;;;;;;;4.73;4.50;;;22.50;1.00;;;;;;6290495;28;20385;-52
2022/07/19 05:43:53;;;;;;;8.77;5.00;;;22.80;1.00;;;;;;6281154;28;20379;-52
2022/07/19 05:46:55;;;;;;;5.67;5.07;;;23.10;1.00;;;;;;6288077;28;20237;-53
2022/07/19 05:49:59;;;;;;;5.13;4.70;;;23.40;1.00;;;;;;6290563;28;20247;-54
2022/07/19 05:53:02;;;;;;;6.77;4.83;;;23.50;1.00;;;;;;6281423;28;20615;-53
2022/07/19 05:56:06;;;;;;;5.60;5.10;;;23.80;1.00;;;;;;6292812;28;20229;-52
2022/07/19 05:59:10;;;;;;;6.83;5.00;;;23.90;1.00;;;;;;6287286;28;20390;-53
2022/07/19 06:02:14;;;;;;;5.07;4.67;;;24.00;1.00;;;;;;6287731;28;20350;-53
2022/07/19 06:05:18;;;;;;;6.93;5.27;;;24.20;1.00;;;;;;6291257;28;20607;-53
2022/07/19 06:08:21;;;;;;;5.77;5.23;;;24.40;1.00;;;;;;6287182;28;20353;-53
2022/07/19 06:11:24;;;;;;;5.80;5.07;;;24.70;1.00;;;;;;6281207;28;20252;-52
2022/07/19 06:14:28;;;;;;;6.23;5.73;;;24.90;1.00;;;;;;6279043;28;20284;-53
2022/07/19 06:17:31;;;;;;;6.73;5.40;;;25.10;1.00;;;;;;6280952;28;20782;-54
2022/07/19 06:20:35;;;;;;;5.93;5.40;;;25.40;1.00;;;;;;6284585;28;20237;-53
2022/07/19 06:23:39;;;;;;;5.73;5.13;;;25.40;1.00;;;;;;6280612;28;20481;-52
2022/07/19 06:26:42;;;;;;;5.57;5.00;;;25.80;1.00;;;;;;6288189;28;20782;-52
2022/07/19 06:29:47;;;;;;;5.33;4.83;;;26.20;1.00;;;;;;6288477;28;20843;-52
2022/07/19 06:32:49;;;;;;;5.20;4.70;;;26.60;1.00;;;;;;6282375;28;20322;-53
2022/07/19 06:35:52;;;;;;;5.27;4.77;;;27.00;1.00;;;;;;6275358;28;20398;-47
2022/07/19 06:38:55;;;;;;;4.80;4.40;;;27.30;1.00;;;;;;6283484;28;20722;-52
2022/07/19 06:42:02;;;;;;;5.27;4.77;;;27.60;1.00;;;;;;6282511;28;20802;-50
2022/07/19 06:45:07;;;;;;;6.63;4.83;;;27.80;1.00;;;;;;6282072;28;20241;-53
2022/07/19 06:48:10;;;;;;;6.90;4.60;;;28.10;1.00;;;;;;6286140;28;20232;-52
2022/07/19 06:51:13;;;;;;;6.28;4.80;;;28.40;1.00;;;;;;6288028;28;20310;-53
2022/07/19 06:54:17;;;;;;;5.15;4.63;;;28.60;1.00;;;;;;6282593;28;20236;-53
2022/07/19 06:57:20;;;;;;;4.32;4.07;;;28.90;1.00;;;;;;6290471;28;20854;-52
2022/07/19 07:00:25;;;;;;;4.45;4.07;;;29.10;1.00;;;;;;6286242;28;20255;-53
2022/07/19 07:03:27;;;;;;;5.15;3.90;;;29.30;1.00;;;;;;6274193;28;20233;-54
2022/07/19 07:06:30;;;;;;;4.65;4.15;;;29.60;1.00;;;;;;6287624;28;20229;-53
2022/07/19 07:09:33;;;;;;;6.07;3.90;;;29.80;1.00;;;;;;6275746;28;20731;-53
2022/07/19 07:12:37;;;;;;;4.70;4.00;;;29.90;1.00;;;;;;6275417;28;20670;-53
2022/07/19 07:15:42;;;;;;;5.72;4.00;;;30.00;1.00;;;;;;6283421;28;20233;-53
2022/07/19 07:18:46;;;;;;;4.45;4.05;;;29.90;1.00;;;;;;6284941;28;20260;-52
2022/07/19 07:21:49;;;;;;;11.35;4.43;;;29.90;1.00;;;;;;6277611;28;20248;-52
2022/07/19 07:24:52;;;;;;;4.53;4.13;;;30.00;1.00;;;;;;6283517;28;20280;-53
2022/07/19 07:27:55;;;;;;;8.38;4.30;;;29.90;1.00;;;;;;6280730;28;20320;-52
2022/07/19 07:30:59;;;;;;;5.93;3.92;;;29.70;1.00;;;;;;6282050;28;20237;-52
2022/07/19 07:34:02;;;;;;;8.52;4.38;;;29.50;1.00;;;;;;6270879;28;20229;-53
2022/07/19 07:37:05;;;;;;;4.40;4.00;;;29.40;1.00;;;;;;6272861;28;20229;-50
2022/07/19 07:40:09;;;;;;;8.75;5.00;;;29.30;1.00;;;;;;6286983;28;20241;-51
2022/07/19 07:43:12;;;;;;;14.40;4.53;;;29.40;1.00;;;;;;6272223;28;20238;-51
2022/07/19 07:46:16;;;;;;;4.45;4.10;;;29.50;1.00;;;;;;6277805;28;20237;-52
2022/07/19 07:49:19;;;;;;;4.53;4.15;;;29.50;1.00;;;;;;6276554;28;20367;-51
2022/07/19 07:52:22;;;;;;;4.35;4.00;;;29.50;1.00;;;;;;6274262;28;20680;-52
2022/07/19 07:55:26;;;;;;;4.65;4.25;;;29.50;1.00;;;;;;6269171;28;20314;-51
2022/07/19 07:58:32;;;;;;;5.28;4.15;;;29.50;1.00;;;;;;6277230;28;20241;-52
2022/07/19 08:01:37;;;;;;;4.40;4.00;;;29.50;1.00;;;;;;6282120;28;20257;-51
2022/07/19 08:04:41;;;;;;;10.40;4.13;;;29.50;1.00;;;;;;6287203;28;20244;-54
2022/07/19 08:07:44;;;;;;;10.60;3.80;;;29.50;1.00;;;;;;6281803;28;20361;-53
2022/07/19 08:10:54;;;;;;;5.60;3.35;;;29.30;1.00;;;;;;6274920;28;20553;-52
2022/07/19 08:13:57;;;;;;;5.00;4.55;;;29.20;1.00;;;;;;6283207;28;20655;-51
2022/07/19 08:17:01;;;;;;;5.20;4.70;;;29.20;1.00;;;;;;6282171;28;20240;-53
2022/07/19 08:20:05;;;;;;;4.55;4.15;;;29.20;1.00;;;;;;6254376;28;20237;-50
2022/07/19 08:23:08;;;;;;;5.47;4.78;;;29.30;1.00;;;;;;6270687;28;20285;-53
2022/07/19 08:26:11;;;;;;;6.60;4.82;;;29.30;1.00;;;;;;6286156;28;20359;-52
2022/07/19 08:29:14;;;;;;;7.90;4.50;;;29.40;1.00;;;;;;6282496;28;20337;-52
2022/07/19 08:32:18;;;;;;;10.13;4.72;;;29.40;1.00;;;;;;6274260;28;20237;-51
2022/07/19 08:35:21;;;;;;;4.38;4.18;;;29.40;1.00;;;;;;6273699;28;20261;-52
2022/07/19 08:38:24;;;;;;;5.18;3.92;;;29.40;1.00;;;;;;6266181;28;20606;-54
2022/07/19 08:41:27;;;;;;;4.10;3.83;;;29.60;1.00;;;;;;6273492;28;20241;-52
2022/07/19 08:44:30;;;;;;;3.63;3.50;;;29.60;1.00;;;;;;6276323;28;20238;-51
2022/07/19 08:47:36;;;;;;;6.45;3.42;;;29.70;1.00;;;;;;6279373;28;20234;-54
2022/07/19 08:50:39;;;;;;;5.55;3.92;;;29.90;1.00;;;;;;6283947;28;20241;-54
2022/07/19 08:53:43;;;;;;;4.20;3.80;;;30.00;1.00;;;;;;6278121;28;20265;-54
2022/07/19 09:00:08;;;;;;;4.68;4.07;;;30.40;1.00;;;;;;6277724;28;20225;-54
2022/07/19 09:03:19;;;;;;;3.65;3.45;;;30.60;1.00;;;;;;6287423;28;20346;-54
2022/07/19 09:06:22;;;;;;;3.60;3.13;;;30.60;1.00;;;;;;6283497;28;20329;-53
2022/07/19 09:09:28;;;;;;;3.47;2.90;;;30.80;1.00;;;;;;6274406;28;20313;-54
2022/07/19 09:12:31;;;;;;;4.00;3.70;;;30.90;1.00;;;;;;6286020;28;20238;-52
2022/07/19 09:15:39;;;;;;;4.55;3.35;;;31.10;1.00;;;;;;6300233;28;20615;-55
2022/07/19 09:18:43;;;;;;;3.63;3.40;;;31.20;1.00;;;;;;6291910;28;20878;-53
2022/07/19 09:21:57;;;;;;;6.55;3.10;;;31.30;1.00;;;;;;6295514;28;20793;-52
2022/07/19 09:25:00;;;;;;;3.40;3.13;;;31.50;1.00;;;;;;6287726;28;20272;-53
2022/07/19 09:28:03;;;;;;;7.53;3.60;;;31.50;1.00;;;;;;6281002;28;20732;-53
2022/07/19 09:31:07;;;;;;;4.05;3.75;;;31.50;1.00;;;;;;6285028;28;20328;-54
2022/07/19 09:34:13;;;;;;;5.00;3.05;;;31.50;1.00;;;;;;6281877;28;20236;-54
2022/07/19 09:37:19;;;;;;;5.85;3.35;;;31.60;1.00;;;;;;6283094;28;20605;-54
2022/07/19 09:40:22;;;;;;;3.70;3.50;;;31.70;1.00;;;;;;6290768;28;20936;-53
2022/07/19 09:43:25;;;;;;;3.40;3.20;;;31.80;1.00;;;;;;6280475;28;20312;-54
2022/07/19 09:46:50;;;;;;;3.88;3.65;;;31.80;1.00;;;;;;6290143;28;20233;-54
2022/07/19 09:49:54;;;;;;;4.75;3.38;;;31.90;1.00;;;;;;6283783;28;20237;-53
2022/07/19 09:53:01;;;;;;;5.03;3.60;;;31.90;1.00;;;;;;6283614;28;20301;-53
2022/07/19 09:56:05;;;;;;;4.65;3.20;;;31.90;1.00;;;;;;6288464;28;20240;-53
2022/07/19 09:59:09;;;;;;;4.50;3.53;;;31.90;1.00;;;;;;6284218;28;20342;-52
2022/07/19 10:02:13;;;;;;;3.47;3.22;;;31.90;1.00;;;;;;6284600;28;20367;-53
2022/07/19 10:05:17;;;;;;;4.15;3.17;;;31.90;1.00;;;;;;6289050;28;20251;-52
2022/07/19 10:08:20;;;;;;;9.05;3.58;;;32.00;1.00;;;;;;6277925;28;20249;-50
2022/07/19 10:11:24;;;;;;;4.57;3.35;;;32.10;1.00;;;;;;6288309;28;20244;-52
2022/07/19 10:14:27;;;;;;;3.20;3.00;;;31.90;1.00;;;;;;6291428;28;20651;-52
2022/07/19 10:17:33;;;;;;;4.30;3.35;;;32.00;1.00;;;;;;6280948;28;20298;-52
2022/07/19 10:20:38;;;;;;;4.32;2.97;;;32.10;1.00;;;;;;6284599;28;20307;-51
2022/07/19 10:23:51;;;;;;;6.63;3.40;;;32.10;1.00;;;;;;6276607;28;20237;-51
2022/07/19 10:26:57;;;;;;;3.40;3.13;;;32.10;1.00;;;;;;6287335;28;20302;-54
2022/07/19 10:30:19;;;;;;;4.88;3.20;;;32.20;1.00;;;;;;6284862;28;20657;-53
2022/07/19 10:33:28;;;;;;;3.88;3.33;;;32.40;1.00;;;;;;6285274;28;20320;-52
2022/07/19 10:36:34;;;;;;;4.70;2.75;;;32.50;1.00;;;;;;6281467;28;20233;-52
2022/07/19 10:39:39;;;;;;;4.05;3.20;;;32.40;1.00;;;;;;6278974;28;20859;-53
2022/07/19 10:43:07;;;;;;;3.00;2.90;;;32.40;1.00;;;;;;6290977;28;20232;-52
2022/07/19 10:46:11;;;;;;;5.07;3.30;;;32.30;1.00;;;;;;6289179;28;20580;-52
2022/07/19 10:49:44;;;;;;;3.53;3.00;;;32.40;1.00;;;;;;6282296;28;20242;-52
2022/07/19 10:52:50;;;;;;;5.70;3.38;;;32.50;1.00;;;;;;6284026;28;20232;-52
2022/07/19 10:56:15;;;;;;;4.93;4.18;;;32.60;1.00;;;;;;6290092;28;20286;-52
2022/07/19 10:59:34;;;;;;;4.00;3.28;;;32.70;1.00;;;;;;6273354;28;20321;-52
2022/07/19 11:02:37;;;;;;;3.95;3.67;;;32.70;1.00;;;;;;6286562;28;20386;-52
2022/07/19 11:05:49;;;;;;;3.92;3.65;;;32.60;1.00;;;;;;6281491;28;20237;-51
2022/07/19 11:08:56;;;;;;;4.78;3.22;;;32.80;1.00;;;;;;6282417;28;20386;-54
2022/07/19 11:11:59;;;;;;;4.72;3.33;;;32.90;1.00;;;;;;6265456;28;20494;-53
2022/07/19 11:15:06;;;;;;;3.15;2.95;;;33.10;1.00;;;;;;6284814;28;20284;-52
2022/07/19 11:18:19;;;;;;;3.33;3.15;;;33.10;1.00;;;;;;6273387;28;20650;-54
2022/07/19 11:21:22;;;;;;;2.60;2.50;;;33.10;1.00;;;;;;6277952;28;20328;-52
2022/07/19 11:24:27;;;;;;;2.55;2.38;;;33.10;1.00;;;;;;6280995;28;20261;-52
2022/07/19 11:27:31;;;;;;;3.15;2.90;;;33.20;1.00;;;;;;6273617;28;20244;-51
2022/07/19 11:30:35;;;;;;;3.38;3.08;;;33.30;1.00;;;;;;6283927;28;20316;-51
2022/07/19 11:33:38;;;;;;;4.05;3.25;;;33.30;1.00;;;;;;6269923;28;20324;-52
2022/07/19 11:36:41;;;;;;;3.13;2.95;;;33.40;1.00;;;;;;6277889;28;20245;-53
2022/07/19 11:39:49;;;;;;;3.45;3.17;;;33.40;1.00;;;;;;6272027;28;20864;-52
2022/07/19 11:42:53;;;;;;;3.35;3.08;;;33.40;1.00;;;;;;6280204;28;20237;-54
2022/07/19 11:46:17;;;;;;;3.33;3.00;;;33.30;1.00;;;;;;6274361;28;20610;-52
2022/07/19 11:49:20;;;;;;;3.83;3.63;;;33.40;1.00;;;;;;6286282;28;20241;-53
2022/07/19 11:52:23;;;;;;;3.70;3.40;;;33.50;1.00;;;;;;6280351;28;20229;-52
2022/07/19 11:55:29;;;;;;;3.55;2.90;;;33.70;1.00;;;;;;6277893;28;20254;-52
2022/07/19 11:58:33;;;;;;;3.35;3.15;;;33.70;1.00;;;;;;6281603;28;20321;-52
2022/07/19 12:01:37;;;;;;;3.25;2.95;;;33.70;1.00;;;;;;6281402;28;20452;-54
2022/07/19 12:04:40;;;;;;;3.65;2.65;;;33.80;1.00;;;;;;6251572;28;20484;-52
2022/07/19 12:07:46;;;;;;;3.00;2.80;;;33.90;1.00;;;;;;6280500;28;20245;-53
2022/07/19 12:10:53;;;;;;;3.05;2.80;;;33.80;1.00;;;;;;6278167;28;20742;-53
2022/07/19 12:13:58;;;;;;;4.00;2.60;;;33.90;1.00;;;;;;6281114;28;20308;-51
2022/07/19 12:17:13;;;;;;;2.88;2.78;;;33.90;1.00;;;;;;6282480;28;20823;-55
2022/07/19 12:20:16;;;;;;;3.10;3.00;;;33.90;1.00;;;;;;6279736;28;20245;-53
2022/07/19 12:23:39;;;;;;;3.22;2.92;;;33.90;1.00;;;;;;6273882;28;20222;-54
2022/07/19 12:26:45;;;;;;;5.78;3.08;;;34.00;1.00;;;;;;6274242;28;20754;-52
2022/07/19 12:29:58;;;;;;;3.28;3.05;;;34.10;1.00;;;;;;6273180;28;20235;-54
2022/07/19 12:33:10;;;;;;;6.38;3.00;;;34.30;1.00;;;;;;6282334;28;20317;-53
2022/07/19 12:36:34;;;;;;;6.00;3.08;;;34.30;1.00;;;;;;6284088;28;20251;-53
2022/07/19 12:39:36;;;;;;;3.40;3.20;;;34.30;1.00;;;;;;6276849;28;20290;-53
2022/07/19 12:42:43;;;;;;;3.15;2.95;;;34.30;1.00;;;;;;6280394;28;20318;-53
2022/07/19 12:45:47;;;;;;;3.40;3.15;;;34.40;1.00;;;;;;6281368;28;20240;-53
2022/07/19 12:48:50;;;;;;;4.30;3.50;;;34.60;1.00;;;;;;6272837;28;20729;-52
2022/07/19 12:51:53;;;;;;;3.80;3.60;;;34.70;1.00;;;;;;6281478;28;20236;-53
2022/07/19 12:54:56;;;;;;;3.83;3.60;;;34.70;1.00;;;;;;6283429;28;21030;-54
2022/07/19 12:58:01;;;;;;;3.85;3.35;;;34.70;1.00;;;;;;6283504;28;20240;-53
2022/07/19 13:01:05;;;;;;;4.47;3.33;;;34.80;1.00;;;;;;6280096;28;20297;-53
2022/07/19 13:04:09;;;;;;;3.88;3.67;;;34.90;1.00;;;;;;6281369;28;20254;-53
2022/07/19 13:07:13;;;;;;;3.55;3.28;;;35.00;1.00;;;;;;6280742;28;20230;-54
2022/07/19 13:10:16;;;;;;;3.53;3.17;;;35.00;1.00;;;;;;6280865;28;20240;-52
2022/07/19 13:13:20;;;;;;;4.05;3.40;;;35.00;1.00;;;;;;6281065;28;20328;-53
2022/07/19 13:16:23;;;;;;;4.13;3.67;;;34.80;1.00;;;;;;6285003;28;20251;-51
2022/07/19 13:19:26;;;;;;;3.70;3.40;;;34.80;1.00;;;;;;6268668;28;20733;-53
2022/07/19 13:22:29;;;;;;;4.60;3.10;;;34.80;1.00;;;;;;6280632;28;20324;-52
2022/07/19 13:25:32;;;;;;;3.28;3.13;;;34.80;1.00;;;;;;6283238;28;20373;-53
2022/07/19 13:28:48;;;;;;;3.03;2.83;;;34.80;1.00;;;;;;6283889;28;20338;-52
2022/07/19 13:31:52;;;;;;;2.95;2.90;;;34.80;1.00;;;;;;6284340;28;20319;-53
2022/07/19 13:34:55;;;;;;;4.72;2.97;;;34.70;1.00;;;;;;6272812;28;20237;-53
2022/07/19 13:37:59;;;;;;;3.03;2.80;;;34.80;1.00;;;;;;6278041;28;20364;-52
2022/07/19 13:41:03;;;;;;;3.28;2.80;;;34.70;1.00;;;;;;6282616;28;20343;-53
2022/07/19 13:44:07;;;;;;;5.95;3.30;;;34.80;1.00;;;;;;6278072;28;20241;-52
2022/07/19 13:47:10;;;;;;;3.05;2.67;;;35.00;1.00;;;;;;6279348;28;20332;-52
2022/07/19 13:50:13;;;;;;;3.88;3.40;;;34.90;1.00;;;;;;6284626;28;20322;-52
2022/07/19 13:53:16;;;;;;;5.25;3.47;;;34.90;1.00;;;;;;6280836;28;20463;-53
2022/07/19 13:56:19;;;;;;;3.63;3.33;;;35.00;1.00;;;;;;6273274;28;20230;-54
2022/07/19 13:59:23;;;;;;;4.47;3.20;;;35.00;1.00;;;;;;6283660;28;20245;-54
2022/07/19 14:02:26;;;;;;;3.38;3.13;;;35.10;1.00;;;;;;6290909;28;20439;-52
2022/07/19 14:05:29;;;;;;;3.83;3.60;;;35.10;1.00;;;;;;6291560;28;20277;-54
2022/07/19 14:08:33;;;;;;;3.63;3.30;;;35.10;1.00;;;;;;6290433;28;20562;-52
2022/07/19 14:11:36;;;;;;;4.30;3.47;;;35.10;1.00;;;;;;6280429;28;20279;-52
2022/07/19 14:14:40;;;;;;;3.17;3.00;;;35.20;1.00;;;;;;6289632;28;20644;-53
2022/07/19 14:17:43;;;;;;;3.60;3.30;;;35.30;1.00;;;;;;6283234;28;20252;-53
2022/07/19 14:20:46;;;;;;;4.13;3.70;;;35.30;1.00;;;;;;6285698;28;20232;-53
2022/07/19 14:23:49;;;;;;;3.67;3.50;;;35.20;1.00;;;;;;6279983;28;20312;-52
2022/07/19 14:26:52;;;;;;;5.90;3.20;;;35.20;1.00;;;;;;6281675;28;20290;-48
2022/07/19 14:29:57;;;;;;;3.22;3.13;;;35.20;1.00;;;;;;6296728;28;20238;-52
2022/07/19 14:33:00;;;;;;;3.42;3.17;;;35.20;1.00;;;;;;6285495;28;20230;-52
2022/07/19 14:36:03;;;;;;;4.38;3.42;;;35.30;1.00;;;;;;6276203;28;20362;-55
2022/07/19 14:39:08;;;;;;;3.25;3.05;;;35.40;1.00;;;;;;6280294;28;20732;-55
2022/07/19 14:42:11;;;;;;;3.28;3.08;;;35.50;1.00;;;;;;6269777;28;20259;-53
2022/07/19 14:45:15;;;;;;;3.58;3.38;;;35.60;1.00;;;;;;6272537;28;20260;-53
2022/07/19 14:48:18;;;;;;;8.57;3.58;;;35.50;1.00;;;;;;6280772;28;20584;-52
2022/07/19 14:51:21;;;;;;;4.25;3.80;;;35.50;1.00;;;;;;6283571;28;20233;-53
2022/07/19 14:54:24;;;;;;;4.00;3.70;;;35.60;1.00;;;;;;6284883;28;20387;-53
2022/07/19 14:57:27;;;;;;;5.38;3.55;;;35.70;1.00;;;;;;6283872;28;20261;-52
2022/07/19 15:00:32;;;;;;;7.28;3.50;;;35.60;1.00;;;;;;6288885;28;20416;-53
2022/07/19 15:03:35;;;;;;;5.13;3.20;;;35.50;1.00;;;;;;6282207;28;20719;-52
2022/07/19 15:06:38;;;;;;;3.35;3.05;;;35.40;1.00;;;;;;6279368;28;20873;-53
2022/07/19 15:09:44;;;;;;;6.63;3.35;;;35.30;1.00;;;;;;6278143;28;20316;-52
2022/07/19 15:12:47;;;;;;;3.60;3.30;;;35.30;1.00;;;;;;6289665;28;20394;-52
2022/07/19 15:15:52;;;;;;;4.47;3.50;;;35.30;1.00;;;;;;6269592;28;20240;-54
2022/07/19 15:18:55;;;;;;;3.40;3.20;;;35.30;1.00;;;;;;6273593;28;20237;-53
2022/07/19 15:21:58;;;;;;;5.68;3.00;;;35.40;1.00;;;;;;6282974;28;20498;-53
2022/07/19 15:25:01;;;;;;;4.55;3.42;;;35.70;1.00;;;;;;6268874;28;20259;-53
2022/07/19 15:28:04;;;;;;;3.42;3.30;;;35.80;1.00;;;;;;6280179;28;20361;-53
2022/07/19 15:31:09;;;;;;;4.43;3.25;;;35.80;1.00;;;;;;6285194;28;20348;-52
2022/07/19 15:34:12;;;;;;;4.20;3.40;;;35.80;1.00;;;;;;6276300;28;20598;-52
2022/07/19 15:37:15;;;;;;;3.45;3.28;;;35.80;1.00;;;;;;6274023;28;20426;-54
2022/07/19 15:40:18;;;;;;;3.58;3.38;;;35.70;1.00;;;;;;6279125;28;20614;-53
2022/07/19 15:43:22;;;;;;;4.30;3.70;;;35.60;1.00;;;;;;6283491;28;20540;-53
2022/07/19 15:46:28;;;;;;;5.80;3.13;;;35.60;1.00;;;;;;6282078;28;20595;-53
2022/07/19 15:49:33;;;;;;;4.47;2.97;;;35.50;1.00;;;;;;6281175;28;20488;-54
2022/07/19 15:52:37;;;;;;;3.10;2.80;;;35.50;1.00;;;;;;6275869;28;20325;-53
2022/07/19 15:55:43;;;;;;;6.90;3.35;;;35.40;1.00;;;;;;6287601;28;20401;-53
2022/07/19 15:58:45;;;;;;;3.30;3.10;;;35.30;1.00;;;;;;6285364;28;20316;-53
2022/07/19 16:01:50;;;;;;;5.40;3.58;;;35.30;1.00;;;;;;6287787;28;20237;-54
2022/07/19 16:04:53;;;;;;;3.92;2.97;;;35.20;1.00;;;;;;6284104;28;20791;-53
2022/07/19 16:07:56;;;;;;;3.55;3.35;;;35.10;1.00;;;;;;6281896;28;20600;-53
2022/07/19 16:10:59;;;;;;;3.40;3.10;;;35.00;1.00;;;;;;6284430;28;21128;-53
2022/07/19 16:14:02;;;;;;;3.40;3.20;;;35.10;1.00;;;;;;6282241;28;20286;-52
2022/07/19 16:17:07;;;;;;;2.75;2.72;;;35.20;1.00;;;;;;6253965;28;20242;-51